sensor_id;sensor_type;location;lat;lon;timestamp;P1;durP1;ratioP1;P2;durP2;ratioP2
59239;SDS011;45010;53.640;10.578;2022-09-09T00:04:43;3.08;;;1.80;;
59239;SDS011;45010;53.640;10.578;2022-09-09T00:07:54;2.60;;;1.67;;
59239;SDS011;45010;53.640;10.578;2022-09-09T00:10:59;2.08;;;1.88;;
59239;SDS011;45010;53.640;10.578;2022-09-09T00:14:06;2.05;;;1.80;;
59239;SDS011;45010;53.640;10.578;2022-09-09T00:17:33;3.33;;;1.77;;
59239;SDS011;45010;53.640;10.578;2022-09-09T00:20:46;3.25;;;2.03;;
59239;SDS011;45010;53.640;10.578;2022-09-09T00:23:54;2.42;;;1.88;;
59239;SDS011;45010;53.640;10.578;2022-09-09T00:27:01;2.65;;;1.77;;
59239;SDS011;45010;53.640;10.578;2022-09-09T00:33:22;2.38;;;1.48;;
59239;SDS011;45010;53.640;10.578;2022-09-09T00:36:24;2.25;;;1.73;;
59239;SDS011;45010;53.640;10.578;2022-09-09T00:39:32;4.03;;;2.00;;
59239;SDS011;45010;53.640;10.578;2022-09-09T00:42:40;3.60;;;1.70;;
59239;SDS011;45010;53.640;10.578;2022-09-09T00:52:30;4.15;;;1.85;;
59239;SDS011;45010;53.640;10.578;2022-09-09T00:55:44;2.28;;;1.70;;
59239;SDS011;45010;53.640;10.578;2022-09-09T00:59:42;3.05;;;1.83;;
59239;SDS011;45010;53.640;10.578;2022-09-09T01:12:58;2.65;;;1.75;;
59239;SDS011;45010;53.640;10.578;2022-09-09T01:16:07;2.03;;;1.63;;
59239;SDS011;45010;53.640;10.578;2022-09-09T01:19:13;2.00;;;1.70;;
59239;SDS011;45010;53.640;10.578;2022-09-09T01:22:34;2.22;;;1.80;;
59239;SDS011;45010;53.640;10.578;2022-09-09T01:26:04;1.77;;;1.67;;
59239;SDS011;45010;53.640;10.578;2022-09-09T01:29:11;1.92;;;1.42;;
59239;SDS011;45010;53.640;10.578;2022-09-09T01:38:57;1.70;;;1.48;;
59239;SDS011;45010;53.640;10.578;2022-09-09T01:41:57;2.65;;;1.90;;
59239;SDS011;45010;53.640;10.578;2022-09-09T01:44:58;1.60;;;1.50;;
59239;SDS011;45010;53.640;10.578;2022-09-09T01:47:58;2.15;;;1.65;;
59239;SDS011;45010;53.640;10.578;2022-09-09T01:50:59;2.42;;;1.60;;
59239;SDS011;45010;53.640;10.578;2022-09-09T01:53:59;2.42;;;1.45;;
59239;SDS011;45010;53.640;10.578;2022-09-09T02:00:25;2.80;;;1.45;;
59239;SDS011;45010;53.640;10.578;2022-09-09T02:03:27;1.75;;;1.40;;
59239;SDS011;45010;53.640;10.578;2022-09-09T02:06:36;3.60;;;1.58;;
59239;SDS011;45010;53.640;10.578;2022-09-09T02:09:38;3.50;;;1.80;;
59239;SDS011;45010;53.640;10.578;2022-09-09T02:12:44;2.67;;;1.58;;
59239;SDS011;45010;53.640;10.578;2022-09-09T02:16:03;2.15;;;1.75;;
59239;SDS011;45010;53.640;10.578;2022-09-09T02:22:26;1.80;;;1.30;;
59239;SDS011;45010;53.640;10.578;2022-09-09T02:25:30;2.40;;;1.65;;
59239;SDS011;45010;53.640;10.578;2022-09-09T02:28:33;1.77;;;1.55;;
59239;SDS011;45010;53.640;10.578;2022-09-09T02:31:35;2.17;;;1.50;;
59239;SDS011;45010;53.640;10.578;2022-09-09T02:34:39;2.47;;;1.65;;
59239;SDS011;45010;53.640;10.578;2022-09-09T02:37:44;1.75;;;1.40;;
59239;SDS011;45010;53.640;10.578;2022-09-09T02:40:46;1.52;;;1.40;;
59239;SDS011;45010;53.640;10.578;2022-09-09T02:43:47;1.58;;;1.40;;
59239;SDS011;45010;53.640;10.578;2022-09-09T02:50:11;1.98;;;1.25;;
59239;SDS011;45010;53.640;10.578;2022-09-09T02:53:18;1.30;;;1.20;;
59239;SDS011;45010;53.640;10.578;2022-09-09T02:56:54;1.67;;;1.42;;
59239;SDS011;45010;53.640;10.578;2022-09-09T02:59:59;1.60;;;1.50;;
59239;SDS011;45010;53.640;10.578;2022-09-09T03:03:02;1.52;;;1.42;;
59239;SDS011;45010;53.640;10.578;2022-09-09T03:06:03;1.45;;;1.35;;
59239;SDS011;45010;53.640;10.578;2022-09-09T03:09:05;1.58;;;1.40;;
59239;SDS011;45010;53.640;10.578;2022-09-09T03:12:06;1.83;;;1.55;;
59239;SDS011;45010;53.640;10.578;2022-09-09T03:15:07;1.35;;;1.25;;
59239;SDS011;45010;53.640;10.578;2022-09-09T03:18:07;1.60;;;1.50;;
59239;SDS011;45010;53.640;10.578;2022-09-09T03:21:08;1.55;;;1.30;;
59239;SDS011;45010;53.640;10.578;2022-09-09T03:24:08;1.88;;;1.55;;
59239;SDS011;45010;53.640;10.578;2022-09-09T03:27:09;1.67;;;1.50;;
59239;SDS011;45010;53.640;10.578;2022-09-09T03:30:09;1.55;;;1.42;;
59239;SDS011;45010;53.640;10.578;2022-09-09T03:33:10;2.25;;;1.35;;
59239;SDS011;45010;53.640;10.578;2022-09-09T03:36:11;1.17;;;1.08;;
59239;SDS011;45010;53.640;10.578;2022-09-09T03:39:11;1.75;;;1.20;;
59239;SDS011;45010;53.640;10.578;2022-09-09T03:42:12;2.15;;;1.20;;
59239;SDS011;45010;53.640;10.578;2022-09-09T03:45:14;1.30;;;1.20;;
59239;SDS011;45010;53.640;10.578;2022-09-09T03:48:15;1.15;;;1.05;;
59239;SDS011;45010;53.640;10.578;2022-09-09T03:51:16;1.48;;;1.00;;
59239;SDS011;45010;53.640;10.578;2022-09-09T03:54:16;1.30;;;1.20;;
59239;SDS011;45010;53.640;10.578;2022-09-09T03:57:17;1.75;;;1.30;;
59239;SDS011;45010;53.640;10.578;2022-09-09T04:00:17;1.50;;;1.38;;
59239;SDS011;45010;53.640;10.578;2022-09-09T04:03:17;1.90;;;1.40;;
59239;SDS011;45010;53.640;10.578;2022-09-09T04:06:18;1.75;;;1.30;;
59239;SDS011;45010;53.640;10.578;2022-09-09T04:09:21;1.95;;;1.20;;
59239;SDS011;45010;53.640;10.578;2022-09-09T04:12:21;1.10;;;1.00;;
59239;SDS011;45010;53.640;10.578;2022-09-09T04:15:22;1.63;;;1.38;;
59239;SDS011;45010;53.640;10.578;2022-09-09T04:18:23;1.55;;;1.30;;
59239;SDS011;45010;53.640;10.578;2022-09-09T04:21:23;1.30;;;1.20;;
59239;SDS011;45010;53.640;10.578;2022-09-09T04:24:24;1.52;;;1.33;;
59239;SDS011;45010;53.640;10.578;2022-09-09T04:27:24;1.63;;;1.20;;
59239;SDS011;45010;53.640;10.578;2022-09-09T04:30:25;1.10;;;1.00;;
59239;SDS011;45010;53.640;10.578;2022-09-09T04:33:27;1.50;;;1.40;;
59239;SDS011;45010;53.640;10.578;2022-09-09T04:36:27;1.52;;;1.42;;
59239;SDS011;45010;53.640;10.578;2022-09-09T04:39:28;1.35;;;1.25;;
59239;SDS011;45010;53.640;10.578;2022-09-09T04:42:28;1.30;;;1.20;;
59239;SDS011;45010;53.640;10.578;2022-09-09T04:45:28;1.58;;;1.48;;
59239;SDS011;45010;53.640;10.578;2022-09-09T04:48:29;2.90;;;1.60;;
59239;SDS011;45010;53.640;10.578;2022-09-09T04:51:31;1.48;;;1.38;;
59239;SDS011;45010;53.640;10.578;2022-09-09T04:54:31;1.50;;;1.05;;
59239;SDS011;45010;53.640;10.578;2022-09-09T04:57:32;1.70;;;1.25;;
59239;SDS011;45010;53.640;10.578;2022-09-09T05:00:34;1.20;;;1.10;;
59239;SDS011;45010;53.640;10.578;2022-09-09T05:03:35;1.60;;;1.40;;
59239;SDS011;45010;53.640;10.578;2022-09-09T05:06:36;1.45;;;1.35;;
59239;SDS011;45010;53.640;10.578;2022-09-09T05:09:37;1.60;;;1.23;;
59239;SDS011;45010;53.640;10.578;2022-09-09T05:12:37;1.35;;;1.25;;
59239;SDS011;45010;53.640;10.578;2022-09-09T05:15:37;1.25;;;1.15;;
59239;SDS011;45010;53.640;10.578;2022-09-09T05:18:38;1.20;;;1.10;;
59239;SDS011;45010;53.640;10.578;2022-09-09T05:21:39;1.30;;;1.20;;
59239;SDS011;45010;53.640;10.578;2022-09-09T05:24:39;1.15;;;1.05;;
59239;SDS011;45010;53.640;10.578;2022-09-09T05:27:40;2.15;;;1.20;;
59239;SDS011;45010;53.640;10.578;2022-09-09T05:30:40;1.60;;;1.38;;
59239;SDS011;45010;53.640;10.578;2022-09-09T05:33:41;1.30;;;1.10;;
59239;SDS011;45010;53.640;10.578;2022-09-09T05:36:43;1.98;;;1.55;;
59239;SDS011;45010;53.640;10.578;2022-09-09T05:39:43;1.55;;;1.17;;
59239;SDS011;45010;53.640;10.578;2022-09-09T05:42:44;1.85;;;1.40;;
59239;SDS011;45010;53.640;10.578;2022-09-09T05:45:44;2.88;;;1.08;;
59239;SDS011;45010;53.640;10.578;2022-09-09T05:48:47;3.42;;;1.58;;
59239;SDS011;45010;53.640;10.578;2022-09-09T05:51:48;7.30;;;1.58;;
59239;SDS011;45010;53.640;10.578;2022-09-09T05:54:48;1.52;;;1.00;;
59239;SDS011;45010;53.640;10.578;2022-09-09T05:57:48;1.63;;;1.00;;
59239;SDS011;45010;53.640;10.578;2022-09-09T06:00:49;3.83;;;1.63;;
59239;SDS011;45010;53.640;10.578;2022-09-09T06:03:50;1.30;;;1.02;;
59239;SDS011;45010;53.640;10.578;2022-09-09T06:06:51;3.97;;;1.25;;
59239;SDS011;45010;53.640;10.578;2022-09-09T06:09:52;2.75;;;1.42;;
59239;SDS011;45010;53.640;10.578;2022-09-09T06:12:53;2.67;;;1.30;;
59239;SDS011;45010;53.640;10.578;2022-09-09T06:15:53;4.57;;;1.90;;
59239;SDS011;45010;53.640;10.578;2022-09-09T06:18:54;5.22;;;1.33;;
59239;SDS011;45010;53.640;10.578;2022-09-09T06:21:56;4.55;;;1.50;;
59239;SDS011;45010;53.640;10.578;2022-09-09T06:24:56;2.83;;;1.48;;
59239;SDS011;45010;53.640;10.578;2022-09-09T06:27:56;2.30;;;1.27;;
59239;SDS011;45010;53.640;10.578;2022-09-09T06:31:01;4.57;;;1.63;;
59239;SDS011;45010;53.640;10.578;2022-09-09T06:34:04;1.15;;;1.02;;
59239;SDS011;45010;53.640;10.578;2022-09-09T06:37:06;3.08;;;1.10;;
59239;SDS011;45010;53.640;10.578;2022-09-09T06:40:08;4.05;;;1.48;;
59239;SDS011;45010;53.640;10.578;2022-09-09T06:43:09;2.00;;;1.30;;
59239;SDS011;45010;53.640;10.578;2022-09-09T06:46:10;2.13;;;1.20;;
59239;SDS011;45010;53.640;10.578;2022-09-09T06:49:13;5.32;;;1.58;;
59239;SDS011;45010;53.640;10.578;2022-09-09T06:52:13;2.42;;;1.50;;
59239;SDS011;45010;53.640;10.578;2022-09-09T06:55:13;5.10;;;1.17;;
59239;SDS011;45010;53.640;10.578;2022-09-09T06:58:15;5.15;;;1.10;;
59239;SDS011;45010;53.640;10.578;2022-09-09T07:01:16;3.55;;;1.30;;
59239;SDS011;45010;53.640;10.578;2022-09-09T07:04:19;2.75;;;1.30;;
59239;SDS011;45010;53.640;10.578;2022-09-09T07:07:19;3.58;;;1.00;;
59239;SDS011;45010;53.640;10.578;2022-09-09T07:10:20;2.67;;;1.25;;
59239;SDS011;45010;53.640;10.578;2022-09-09T07:13:24;3.45;;;1.30;;
59239;SDS011;45010;53.640;10.578;2022-09-09T07:16:25;1.63;;;1.10;;
59239;SDS011;45010;53.640;10.578;2022-09-09T07:19:27;4.65;;;1.40;;
59239;SDS011;45010;53.640;10.578;2022-09-09T07:22:28;4.28;;;1.35;;
59239;SDS011;45010;53.640;10.578;2022-09-09T07:25:28;4.95;;;1.38;;
59239;SDS011;45010;53.640;10.578;2022-09-09T07:28:30;9.55;;;1.83;;
59239;SDS011;45010;53.640;10.578;2022-09-09T07:31:32;4.32;;;1.15;;
59239;SDS011;45010;53.640;10.578;2022-09-09T07:34:34;1.98;;;1.02;;
59239;SDS011;45010;53.640;10.578;2022-09-09T07:37:36;2.92;;;1.10;;
59239;SDS011;45010;53.640;10.578;2022-09-09T07:40:37;4.57;;;1.08;;
59239;SDS011;45010;53.640;10.578;2022-09-09T07:43:42;4.55;;;1.70;;
59239;SDS011;45010;53.640;10.578;2022-09-09T07:46:44;2.95;;;1.60;;
59239;SDS011;45010;53.640;10.578;2022-09-09T07:49:45;3.63;;;1.55;;
59239;SDS011;45010;53.640;10.578;2022-09-09T07:52:46;3.97;;;1.13;;
59239;SDS011;45010;53.640;10.578;2022-09-09T07:55:46;2.15;;;1.10;;
59239;SDS011;45010;53.640;10.578;2022-09-09T07:58:47;1.83;;;1.10;;
59239;SDS011;45010;53.640;10.578;2022-09-09T08:01:49;4.40;;;0.95;;
59239;SDS011;45010;53.640;10.578;2022-09-09T08:04:54;1.20;;;1.00;;
59239;SDS011;45010;53.640;10.578;2022-09-09T08:07:54;1.35;;;1.00;;
59239;SDS011;45010;53.640;10.578;2022-09-09T08:11:00;1.65;;;1.10;;
59239;SDS011;45010;53.640;10.578;2022-09-09T08:14:09;3.17;;;1.00;;
59239;SDS011;45010;53.640;10.578;2022-09-09T08:17:11;2.10;;;0.93;;
59239;SDS011;45010;53.640;10.578;2022-09-09T08:20:11;2.35;;;1.00;;
59239;SDS011;45010;53.640;10.578;2022-09-09T08:23:11;1.92;;;1.10;;
59239;SDS011;45010;53.640;10.578;2022-09-09T08:26:13;2.33;;;1.02;;
59239;SDS011;45010;53.640;10.578;2022-09-09T08:29:15;1.40;;;0.90;;
59239;SDS011;45010;53.640;10.578;2022-09-09T08:32:16;1.25;;;1.00;;
59239;SDS011;45010;53.640;10.578;2022-09-09T08:35:16;1.67;;;1.00;;
59239;SDS011;45010;53.640;10.578;2022-09-09T08:38:17;2.05;;;0.93;;
59239;SDS011;45010;53.640;10.578;2022-09-09T08:44:46;3.17;;;1.02;;
59239;SDS011;45010;53.640;10.578;2022-09-09T08:50:58;3.13;;;0.93;;
59239;SDS011;45010;53.640;10.578;2022-09-09T08:54:02;3.55;;;1.00;;
59239;SDS011;45010;53.640;10.578;2022-09-09T08:57:04;1.73;;;0.90;;
59239;SDS011;45010;53.640;10.578;2022-09-09T09:00:14;1.33;;;0.88;;
59239;SDS011;45010;53.640;10.578;2022-09-09T09:06:39;2.25;;;1.17;;
59239;SDS011;45010;53.640;10.578;2022-09-09T09:10:09;2.78;;;0.90;;
59239;SDS011;45010;53.640;10.578;2022-09-09T09:13:19;2.60;;;0.90;;
59239;SDS011;45010;53.640;10.578;2022-09-09T09:16:32;1.23;;;0.90;;
59239;SDS011;45010;53.640;10.578;2022-09-09T09:19:38;1.23;;;0.70;;
59239;SDS011;45010;53.640;10.578;2022-09-09T09:22:50;1.63;;;0.80;;
59239;SDS011;45010;53.640;10.578;2022-09-09T09:25:55;1.55;;;0.82;;
59239;SDS011;45010;53.640;10.578;2022-09-09T09:29:00;2.33;;;0.90;;
59239;SDS011;45010;53.640;10.578;2022-09-09T09:32:13;2.40;;;0.80;;
59239;SDS011;45010;53.640;10.578;2022-09-09T09:35:16;1.27;;;0.80;;
59239;SDS011;45010;53.640;10.578;2022-09-09T09:38:20;1.75;;;0.88;;
59239;SDS011;45010;53.640;10.578;2022-09-09T09:41:35;1.30;;;0.70;;
59239;SDS011;45010;53.640;10.578;2022-09-09T09:44:38;2.10;;;1.15;;
59239;SDS011;45010;53.640;10.578;2022-09-09T09:47:38;1.38;;;0.80;;
59239;SDS011;45010;53.640;10.578;2022-09-09T09:57:15;1.52;;;0.90;;
59239;SDS011;45010;53.640;10.578;2022-09-09T10:00:17;1.38;;;1.17;;
59239;SDS011;45010;53.640;10.578;2022-09-09T10:03:24;2.67;;;0.80;;
59239;SDS011;45010;53.640;10.578;2022-09-09T10:06:33;1.35;;;0.70;;
59239;SDS011;45010;53.640;10.578;2022-09-09T10:09:38;4.18;;;1.10;;
59239;SDS011;45010;53.640;10.578;2022-09-09T10:29:02;1.90;;;0.95;;
59239;SDS011;45010;53.640;10.578;2022-09-09T10:36:00;3.95;;;1.08;;
59239;SDS011;45010;53.640;10.578;2022-09-09T10:42:30;1.98;;;0.90;;
59239;SDS011;45010;53.640;10.578;2022-09-09T10:45:34;3.10;;;0.63;;
59239;SDS011;45010;53.640;10.578;2022-09-09T10:48:45;2.55;;;0.82;;
59239;SDS011;45010;53.640;10.578;2022-09-09T10:52:08;1.00;;;0.57;;
59239;SDS011;45010;53.640;10.578;2022-09-09T10:55:18;0.90;;;0.68;;
59239;SDS011;45010;53.640;10.578;2022-09-09T10:58:23;1.10;;;0.70;;
59239;SDS011;45010;53.640;10.578;2022-09-09T11:01:37;1.98;;;0.60;;
59239;SDS011;45010;53.640;10.578;2022-09-09T11:04:55;1.13;;;0.43;;
59239;SDS011;45010;53.640;10.578;2022-09-09T11:08:18;1.77;;;0.55;;
59239;SDS011;45010;53.640;10.578;2022-09-09T11:11:21;2.13;;;0.63;;
59239;SDS011;45010;53.640;10.578;2022-09-09T11:14:34;2.40;;;0.73;;
59239;SDS011;45010;53.640;10.578;2022-09-09T11:17:52;1.08;;;0.65;;
59239;SDS011;45010;53.640;10.578;2022-09-09T11:20:58;3.47;;;0.70;;
59239;SDS011;45010;53.640;10.578;2022-09-09T11:24:05;2.83;;;0.70;;
59239;SDS011;45010;53.640;10.578;2022-09-09T11:30:24;3.90;;;0.60;;
59239;SDS011;45010;53.640;10.578;2022-09-09T11:40:26;3.08;;;0.98;;
59239;SDS011;45010;53.640;10.578;2022-09-09T11:43:32;1.88;;;0.57;;
59239;SDS011;45010;53.640;10.578;2022-09-09T11:46:39;2.63;;;0.70;;
59239;SDS011;45010;53.640;10.578;2022-09-09T11:49:41;1.77;;;0.50;;
59239;SDS011;45010;53.640;10.578;2022-09-09T11:52:43;2.92;;;0.80;;
59239;SDS011;45010;53.640;10.578;2022-09-09T11:55:59;1.23;;;0.70;;
59239;SDS011;45010;53.640;10.578;2022-09-09T11:59:05;1.83;;;0.50;;
59239;SDS011;45010;53.640;10.578;2022-09-09T12:02:23;2.38;;;0.63;;
59239;SDS011;45010;53.640;10.578;2022-09-09T12:05:40;1.95;;;0.60;;
59239;SDS011;45010;53.640;10.578;2022-09-09T12:08:45;0.93;;;0.57;;
59239;SDS011;45010;53.640;10.578;2022-09-09T12:11:51;1.60;;;0.40;;
59239;SDS011;45010;53.640;10.578;2022-09-09T12:18:00;1.70;;;0.55;;
59239;SDS011;45010;53.640;10.578;2022-09-09T12:24:27;2.78;;;0.52;;
59239;SDS011;45010;53.640;10.578;2022-09-09T12:31:24;2.90;;;0.57;;
59239;SDS011;45010;53.640;10.578;2022-09-09T12:34:38;2.45;;;0.43;;
59239;SDS011;45010;53.640;10.578;2022-09-09T12:37:51;1.27;;;0.50;;
59239;SDS011;45010;53.640;10.578;2022-09-09T12:40:57;1.27;;;0.60;;
59239;SDS011;45010;53.640;10.578;2022-09-09T12:44:08;2.92;;;0.50;;
59239;SDS011;45010;53.640;10.578;2022-09-09T12:47:10;3.50;;;0.60;;
59239;SDS011;45010;53.640;10.578;2022-09-09T12:50:23;3.45;;;0.80;;
59239;SDS011;45010;53.640;10.578;2022-09-09T12:53:30;0.45;;;0.28;;
59239;SDS011;45010;53.640;10.578;2022-09-09T12:56:34;2.17;;;0.80;;
59239;SDS011;45010;53.640;10.578;2022-09-09T12:59:39;2.22;;;1.08;;
59239;SDS011;45010;53.640;10.578;2022-09-09T13:02:49;2.17;;;0.52;;
59239;SDS011;45010;53.640;10.578;2022-09-09T13:05:52;1.70;;;0.80;;
59239;SDS011;45010;53.640;10.578;2022-09-09T13:08:54;2.47;;;0.60;;
59239;SDS011;45010;53.640;10.578;2022-09-09T13:11:56;2.72;;;1.50;;
59239;SDS011;45010;53.640;10.578;2022-09-09T13:14:58;2.22;;;0.63;;
59239;SDS011;45010;53.640;10.578;2022-09-09T13:17:59;2.00;;;0.50;;
59239;SDS011;45010;53.640;10.578;2022-09-09T13:21:06;3.10;;;0.73;;
59239;SDS011;45010;53.640;10.578;2022-09-09T13:24:21;4.25;;;0.95;;
59239;SDS011;45010;53.640;10.578;2022-09-09T13:27:26;5.03;;;0.85;;
59239;SDS011;45010;53.640;10.578;2022-09-09T13:30:31;3.10;;;0.75;;
59239;SDS011;45010;53.640;10.578;2022-09-09T13:33:36;2.17;;;0.50;;
59239;SDS011;45010;53.640;10.578;2022-09-09T13:36:37;1.67;;;0.80;;
59239;SDS011;45010;53.640;10.578;2022-09-09T13:39:40;1.50;;;0.57;;
59239;SDS011;45010;53.640;10.578;2022-09-09T13:42:55;1.45;;;0.60;;
59239;SDS011;45010;53.640;10.578;2022-09-09T13:45:57;1.15;;;0.60;;
59239;SDS011;45010;53.640;10.578;2022-09-09T13:49:18;2.15;;;0.55;;
59239;SDS011;45010;53.640;10.578;2022-09-09T13:52:20;1.35;;;0.70;;
59239;SDS011;45010;53.640;10.578;2022-09-09T13:55:22;1.85;;;0.70;;
59239;SDS011;45010;53.640;10.578;2022-09-09T13:58:23;6.03;;;0.70;;
59239;SDS011;45010;53.640;10.578;2022-09-09T14:01:25;2.63;;;0.60;;
59239;SDS011;45010;53.640;10.578;2022-09-09T14:04:25;2.22;;;0.60;;
59239;SDS011;45010;53.640;10.578;2022-09-09T14:07:25;1.20;;;0.57;;
59239;SDS011;45010;53.640;10.578;2022-09-09T14:10:26;5.75;;;0.70;;
59239;SDS011;45010;53.640;10.578;2022-09-09T14:13:27;1.55;;;0.70;;
59239;SDS011;45010;53.640;10.578;2022-09-09T14:16:27;3.25;;;1.20;;
59239;SDS011;45010;53.640;10.578;2022-09-09T14:19:28;2.40;;;0.60;;
59239;SDS011;45010;53.640;10.578;2022-09-09T14:22:28;1.95;;;0.73;;
59239;SDS011;45010;53.640;10.578;2022-09-09T14:25:28;0.93;;;0.70;;
59239;SDS011;45010;53.640;10.578;2022-09-09T14:28:29;3.13;;;0.60;;
59239;SDS011;45010;53.640;10.578;2022-09-09T14:31:29;2.63;;;0.60;;
59239;SDS011;45010;53.640;10.578;2022-09-09T14:34:29;1.45;;;0.75;;
59239;SDS011;45010;53.640;10.578;2022-09-09T14:37:32;1.17;;;0.68;;
59239;SDS011;45010;53.640;10.578;2022-09-09T14:40:33;4.65;;;0.75;;
59239;SDS011;45010;53.640;10.578;2022-09-09T14:43:38;1.08;;;0.55;;
59239;SDS011;45010;53.640;10.578;2022-09-09T14:46:38;2.90;;;0.70;;
59239;SDS011;45010;53.640;10.578;2022-09-09T14:49:39;2.97;;;0.57;;
59239;SDS011;45010;53.640;10.578;2022-09-09T14:52:39;2.33;;;0.60;;
59239;SDS011;45010;53.640;10.578;2022-09-09T14:55:39;1.80;;;0.57;;
59239;SDS011;45010;53.640;10.578;2022-09-09T14:58:40;4.32;;;0.65;;
59239;SDS011;45010;53.640;10.578;2022-09-09T15:01:40;1.70;;;0.70;;
59239;SDS011;45010;53.640;10.578;2022-09-09T15:04:41;1.13;;;0.55;;
59239;SDS011;45010;53.640;10.578;2022-09-09T15:07:41;2.10;;;0.50;;
59239;SDS011;45010;53.640;10.578;2022-09-09T15:10:42;1.67;;;0.70;;
59239;SDS011;45010;53.640;10.578;2022-09-09T15:13:44;2.60;;;0.63;;
59239;SDS011;45010;53.640;10.578;2022-09-09T15:16:45;1.63;;;0.50;;
59239;SDS011;45010;53.640;10.578;2022-09-09T15:19:45;2.38;;;0.60;;
59239;SDS011;45010;53.640;10.578;2022-09-09T15:22:45;2.33;;;0.70;;
59239;SDS011;45010;53.640;10.578;2022-09-09T15:25:52;1.05;;;0.60;;
59239;SDS011;45010;53.640;10.578;2022-09-09T15:28:56;0.57;;;0.40;;
59239;SDS011;45010;53.640;10.578;2022-09-09T15:31:59;1.75;;;0.47;;
59239;SDS011;45010;53.640;10.578;2022-09-09T15:34:59;1.13;;;0.52;;
59239;SDS011;45010;53.640;10.578;2022-09-09T15:38:01;1.65;;;0.40;;
59239;SDS011;45010;53.640;10.578;2022-09-09T15:41:04;1.23;;;0.50;;
59239;SDS011;45010;53.640;10.578;2022-09-09T15:44:05;1.95;;;0.60;;
59239;SDS011;45010;53.640;10.578;2022-09-09T15:47:06;2.05;;;0.65;;
59239;SDS011;45010;53.640;10.578;2022-09-09T15:50:06;1.80;;;1.02;;
59239;SDS011;45010;53.640;10.578;2022-09-09T15:53:06;1.48;;;0.50;;
59239;SDS011;45010;53.640;10.578;2022-09-09T15:56:07;0.85;;;0.40;;
59239;SDS011;45010;53.640;10.578;2022-09-09T15:59:08;1.80;;;0.40;;
59239;SDS011;45010;53.640;10.578;2022-09-09T16:02:08;4.20;;;0.65;;
59239;SDS011;45010;53.640;10.578;2022-09-09T16:05:09;2.78;;;0.65;;
59239;SDS011;45010;53.640;10.578;2022-09-09T16:08:09;2.17;;;0.52;;
59239;SDS011;45010;53.640;10.578;2022-09-09T16:11:14;1.10;;;0.60;;
59239;SDS011;45010;53.640;10.578;2022-09-09T16:14:16;0.65;;;0.40;;
59239;SDS011;45010;53.640;10.578;2022-09-09T16:17:17;3.20;;;0.60;;
59239;SDS011;45010;53.640;10.578;2022-09-09T16:20:20;2.03;;;0.45;;
59239;SDS011;45010;53.640;10.578;2022-09-09T16:23:20;1.85;;;0.40;;
59239;SDS011;45010;53.640;10.578;2022-09-09T16:26:21;2.00;;;0.40;;
59239;SDS011;45010;53.640;10.578;2022-09-09T16:29:22;2.33;;;0.50;;
59239;SDS011;45010;53.640;10.578;2022-09-09T16:32:22;0.88;;;0.40;;
59239;SDS011;45010;53.640;10.578;2022-09-09T16:35:23;1.38;;;0.52;;
59239;SDS011;45010;53.640;10.578;2022-09-09T16:38:23;1.05;;;0.50;;
59239;SDS011;45010;53.640;10.578;2022-09-09T16:41:25;1.20;;;0.60;;
59239;SDS011;45010;53.640;10.578;2022-09-09T16:44:27;1.52;;;0.60;;
59239;SDS011;45010;53.640;10.578;2022-09-09T16:47:27;1.48;;;0.60;;
59239;SDS011;45010;53.640;10.578;2022-09-09T16:50:28;1.67;;;0.70;;
59239;SDS011;45010;53.640;10.578;2022-09-09T16:53:31;1.35;;;0.55;;
59239;SDS011;45010;53.640;10.578;2022-09-09T16:56:32;2.28;;;0.57;;
59239;SDS011;45010;53.640;10.578;2022-09-09T16:59:36;3.13;;;0.50;;
59239;SDS011;45010;53.640;10.578;2022-09-09T17:02:37;3.60;;;0.93;;
59239;SDS011;45010;53.640;10.578;2022-09-09T17:05:41;2.05;;;0.40;;
59239;SDS011;45010;53.640;10.578;2022-09-09T17:08:41;0.70;;;0.40;;
59239;SDS011;45010;53.640;10.578;2022-09-09T17:11:41;1.08;;;0.70;;
59239;SDS011;45010;53.640;10.578;2022-09-09T17:14:42;0.82;;;0.40;;
59239;SDS011;45010;53.640;10.578;2022-09-09T17:17:42;0.82;;;0.50;;
59239;SDS011;45010;53.640;10.578;2022-09-09T17:20:45;1.10;;;0.50;;
59239;SDS011;45010;53.640;10.578;2022-09-09T17:23:45;1.40;;;0.63;;
59239;SDS011;45010;53.640;10.578;2022-09-09T17:26:46;0.60;;;0.45;;
59239;SDS011;45010;53.640;10.578;2022-09-09T17:29:46;1.05;;;0.60;;
59239;SDS011;45010;53.640;10.578;2022-09-09T17:32:46;4.05;;;0.43;;
59239;SDS011;45010;53.640;10.578;2022-09-09T17:35:47;1.10;;;0.40;;
59239;SDS011;45010;53.640;10.578;2022-09-09T17:38:49;1.08;;;0.70;;
59239;SDS011;45010;53.640;10.578;2022-09-09T17:41:49;0.65;;;0.40;;
59239;SDS011;45010;53.640;10.578;2022-09-09T17:44:52;1.48;;;0.60;;
59239;SDS011;45010;53.640;10.578;2022-09-09T17:47:54;1.25;;;0.50;;
59239;SDS011;45010;53.640;10.578;2022-09-09T17:50:57;0.80;;;0.60;;
59239;SDS011;45010;53.640;10.578;2022-09-09T17:54:09;1.67;;;0.43;;
59239;SDS011;45010;53.640;10.578;2022-09-09T17:57:12;1.55;;;0.63;;
59239;SDS011;45010;53.640;10.578;2022-09-09T18:00:12;0.60;;;0.35;;
59239;SDS011;45010;53.640;10.578;2022-09-09T18:03:12;0.60;;;0.50;;
59239;SDS011;45010;53.640;10.578;2022-09-09T18:06:14;1.17;;;0.40;;
59239;SDS011;45010;53.640;10.578;2022-09-09T18:09:17;2.40;;;0.47;;
59239;SDS011;45010;53.640;10.578;2022-09-09T18:12:19;1.83;;;0.40;;
59239;SDS011;45010;53.640;10.578;2022-09-09T18:15:20;0.50;;;0.40;;
59239;SDS011;45010;53.640;10.578;2022-09-09T18:18:20;1.70;;;0.40;;
59239;SDS011;45010;53.640;10.578;2022-09-09T18:21:21;0.47;;;0.40;;
59239;SDS011;45010;53.640;10.578;2022-09-09T18:24:22;1.08;;;0.55;;
59239;SDS011;45010;53.640;10.578;2022-09-09T18:27:23;2.20;;;0.43;;
59239;SDS011;45010;53.640;10.578;2022-09-09T18:30:24;1.17;;;0.47;;
59239;SDS011;45010;53.640;10.578;2022-09-09T18:33:24;0.85;;;0.65;;
59239;SDS011;45010;53.640;10.578;2022-09-09T18:36:26;0.90;;;0.50;;
59239;SDS011;45010;53.640;10.578;2022-09-09T18:39:30;1.92;;;0.50;;
59239;SDS011;45010;53.640;10.578;2022-09-09T18:42:31;0.45;;;0.35;;
59239;SDS011;45010;53.640;10.578;2022-09-09T18:45:34;0.73;;;0.60;;
59239;SDS011;45010;53.640;10.578;2022-09-09T18:48:35;1.58;;;0.47;;
59239;SDS011;45010;53.640;10.578;2022-09-09T18:51:36;0.93;;;0.52;;
59239;SDS011;45010;53.640;10.578;2022-09-09T18:54:37;0.55;;;0.40;;
59239;SDS011;45010;53.640;10.578;2022-09-09T18:57:37;0.50;;;0.50;;
59239;SDS011;45010;53.640;10.578;2022-09-09T19:00:37;1.48;;;0.70;;
59239;SDS011;45010;53.640;10.578;2022-09-09T19:03:38;0.47;;;0.45;;
59239;SDS011;45010;53.640;10.578;2022-09-09T19:06:40;1.00;;;0.60;;
59239;SDS011;45010;53.640;10.578;2022-09-09T19:09:41;0.65;;;0.50;;
59239;SDS011;45010;53.640;10.578;2022-09-09T19:12:41;1.55;;;0.63;;
59239;SDS011;45010;53.640;10.578;2022-09-09T19:15:42;0.63;;;0.50;;
59239;SDS011;45010;53.640;10.578;2022-09-09T19:18:42;1.13;;;0.60;;
59239;SDS011;45010;53.640;10.578;2022-09-09T19:21:45;1.33;;;0.63;;
59239;SDS011;45010;53.640;10.578;2022-09-09T19:24:46;0.93;;;0.50;;
59239;SDS011;45010;53.640;10.578;2022-09-09T19:27:47;1.92;;;0.50;;
59239;SDS011;45010;53.640;10.578;2022-09-09T19:30:48;1.05;;;0.70;;
59239;SDS011;45010;53.640;10.578;2022-09-09T19:33:48;0.93;;;0.57;;
59239;SDS011;45010;53.640;10.578;2022-09-09T19:36:51;1.23;;;0.50;;
59239;SDS011;45010;53.640;10.578;2022-09-09T19:39:51;1.02;;;0.70;;
59239;SDS011;45010;53.640;10.578;2022-09-09T19:42:52;0.63;;;0.50;;
59239;SDS011;45010;53.640;10.578;2022-09-09T19:45:56;1.42;;;0.73;;
59239;SDS011;45010;53.640;10.578;2022-09-09T19:48:57;0.88;;;0.52;;